Time;durP1;ratioP1;P1;durP2;ratioP2;P2;SDS_P1;SDS_P2;PMS_P1;PMS_P2;Temp;Humidity;BMP_temperature;BMP_pressure;BME280_temperature;BME280_humidity;BME280_pressure;Samples;Min_cycle;Max_cycle;Signal;HPM_P1;HPM_P2
2021/01/20 00:00:13;;;;;;;51.13;30.72;;;;;;;0.92;36.56;100136.28;1730319;81;21387;-70
2021/01/20 00:02:40;;;;;;;48.90;29.92;;;;;;;0.89;36.60;100139.11;1744183;81;21592;-70
2021/01/20 00:05:09;;;;;;;50.75;33.00;;;;;;;0.86;36.61;100144.52;1755208;81;22129;-69
2021/01/20 00:07:37;;;;;;;51.77;32.65;;;;;;;0.90;36.61;100150.41;1726397;81;21154;-70
2021/01/20 00:10:07;;;;;;;50.48;31.12;;;;;;;0.88;36.61;100154.89;1748475;81;21161;-69
2021/01/20 00:12:34;;;;;;;54.35;32.98;;;;;;;0.91;36.56;100153.41;1754412;81;21350;-68
2021/01/20 00:15:04;;;;;;;49.53;31.87;;;;;;;0.87;36.59;100147.53;1741134;81;21161;-69
2021/01/20 00:17:31;;;;;;;48.85;32.00;;;;;;;0.90;36.56;100149.94;1746334;81;21163;-69
2021/01/20 00:20:00;;;;;;;55.25;32.20;;;;;;;0.89;36.58;100155.25;1735906;81;21157;-70
2021/01/20 00:22:28;;;;;;;51.88;32.53;;;;;;;0.91;36.55;100154.72;1756249;81;21172;-68
2021/01/20 00:24:56;;;;;;;55.23;33.75;;;;;;;0.87;36.58;100143.60;1746360;81;21210;-68
2021/01/20 00:27:23;;;;;;;55.60;34.30;;;;;;;0.90;36.53;100140.77;1731045;81;21155;-68
2021/01/20 00:29:51;;;;;;;52.48;33.25;;;;;;;0.87;36.54;100142.30;1721370;82;21649;-69
2021/01/20 00:32:18;;;;;;;56.92;35.08;;;;;;;0.90;36.51;100149.09;1731361;81;21187;-69
2021/01/20 00:34:46;;;;;;;51.33;32.23;;;;;;;0.88;36.53;100146.58;1723780;82;21613;-68
2021/01/20 00:37:13;;;;;;;54.88;33.95;;;;;;;0.88;36.52;100142.65;1736316;81;21391;-68
2021/01/20 00:39:40;;;;;;;53.02;33.15;;;;;;;0.88;36.51;100140.52;1714677;81;21989;-69
2021/01/20 00:42:11;;;;;;;56.50;34.40;;;;;;;0.87;36.51;100148.84;1721779;82;21136;-69
2021/01/20 00:44:41;;;;;;;56.83;34.65;;;;;;;0.87;36.50;100143.60;1723323;82;21195;-69
2021/01/20 00:47:09;;;;;;;58.80;34.38;;;;;;;0.86;36.50;100140.59;1719602;82;21611;-69
2021/01/20 00:49:40;;;;;;;57.58;33.73;;;;;;;0.86;36.51;100139.77;1694101;82;21215;-70
2021/01/20 00:52:08;;;;;;;55.70;33.25;;;;;;;0.83;36.53;100138.64;1737788;81;21181;-68
2021/01/20 00:54:36;;;;;;;53.70;33.63;;;;;;;0.78;36.57;100137.16;1738606;81;21186;-68
2021/01/20 00:57:06;;;;;;;54.65;33.67;;;;;;;0.77;36.59;100135.49;1726797;83;21181;-68
2021/01/20 00:59:34;;;;;;;54.23;32.80;;;;;;;0.83;36.54;100137.33;1703868;83;21165;-68
2021/01/20 01:02:01;;;;;;;53.87;33.48;;;;;;;0.81;36.56;100131.36;1722240;83;21374;-69
2021/01/20 01:04:40;;;;;;;54.65;33.88;;;;;;;0.83;36.50;100138.64;1725259;82;21158;-68
2021/01/20 01:07:09;;;;;;;52.75;32.08;;;;;;;0.81;36.54;100135.28;1723795;81;21611;-68
2021/01/20 01:09:37;;;;;;;50.20;31.87;;;;;;;0.81;36.50;100136.11;1719531;81;21574;-69
2021/01/20 01:12:10;;;;;;;53.87;31.73;;;;;;;0.80;36.50;100130.53;1751999;81;21129;-69
2021/01/20 01:14:38;;;;;;;53.20;32.53;;;;;;;0.80;36.50;100134.45;1745877;81;21191;-70
2021/01/20 01:17:28;;;;;;;56.50;35.57;;;;;;;0.80;36.57;100133.62;1773694;80;22707;-70
2021/01/20 01:19:57;;;;;;;55.38;35.65;;;;;;;0.74;36.57;100135.67;1736959;81;21156;-69
2021/01/20 01:22:25;;;;;;;54.05;33.50;;;;;;;0.76;36.52;100135.11;1741937;81;21332;-69
2021/01/20 01:24:53;;;;;;;53.78;33.70;;;;;;;0.76;36.52;100136.89;1751844;81;21066;-68
2021/01/20 01:27:20;;;;;;;61.30;35.73;;;;;;;0.75;36.51;100135.20;1741995;81;21366;-68
2021/01/20 01:29:52;;;;;;;51.13;31.95;;;;;;;0.73;36.54;100135.77;1758152;80;21152;-69
2021/01/20 01:32:23;;;;;;;54.23;34.00;;;;;;;0.70;36.57;100132.05;1748053;81;21140;-69
2021/01/20 01:34:51;;;;;;;56.30;33.58;;;;;;;0.70;36.60;100128.95;1710231;81;21398;-70
2021/01/20 01:37:19;;;;;;;53.17;34.15;;;;;;;0.69;36.57;100136.89;1749718;81;21211;-68
2021/01/20 01:40:06;;;;;;;53.00;32.88;;;;;;;0.72;36.55;100130.17;1762874;80;21176;-69
2021/01/20 01:42:35;;;;;;;52.58;32.10;;;;;;;0.71;36.68;100137.63;1750937;80;21190;-68
2021/01/20 01:45:06;;;;;;;52.00;32.67;;;;;;;0.71;36.68;100137.63;1737785;81;21147;-69
2021/01/20 01:47:36;;;;;;;54.40;33.50;;;;;;;0.71;36.55;100137.63;1717780;81;21275;-68
2021/01/20 01:50:08;;;;;;;52.85;34.50;;;;;;;0.70;36.55;100138.11;1748488;81;21148;-69
2021/01/20 01:52:37;;;;;;;54.65;32.85;;;;;;;0.70;36.55;100142.03;1739872;81;21223;-69
2021/01/20 01:55:15;;;;;;;54.40;34.33;;;;;;;0.71;36.57;100140.25;1740041;80;22763;-68
2021/01/20 01:58:03;;;;;;;51.90;32.78;;;;;;;0.66;36.59;100143.64;1771911;79;21099;-68
2021/01/20 02:00:33;;;;;;;53.73;33.92;;;;;;;0.63;36.60;100140.72;1772618;79;21525;-68
2021/01/20 02:03:25;;;;;;;54.17;33.03;;;;;;;0.69;36.61;100130.35;1757742;80;22962;-69
2021/01/20 02:05:54;;;;;;;54.38;32.90;;;;;;;0.66;36.57;100137.10;1776012;78;21632;-68
2021/01/20 02:08:23;;;;;;;58.70;35.15;;;;;;;0.64;36.58;100133.27;1783310;77;21193;-68
2021/01/20 02:10:54;;;;;;;58.78;33.80;;;;;;;0.62;36.61;100132.97;1801288;78;21205;-69
2021/01/20 02:13:35;;;;;;;56.98;34.25;;;;;;;0.60;36.62;100130.47;1793666;78;21547;-69
2021/01/20 02:16:11;;;;;;;57.88;33.73;;;;;;;0.60;36.63;100127.86;1798997;78;21161;-67
2021/01/20 02:18:40;;;;;;;60.30;35.98;;;;;;;0.58;36.66;100124.02;1794775;78;21595;-68
2021/01/20 02:21:30;;;;;;;61.25;35.52;;;;;;;0.63;36.59;100126.81;1807376;77;21208;-68
2021/01/20 02:24:20;;;;;;;60.77;34.00;;;;;;;0.67;36.58;100117.84;1815105;77;22788;-67
2021/01/20 02:27:11;;;;;;;60.05;34.50;;;;;;;0.60;36.54;100126.55;1806686;78;21611;-67
2021/01/20 02:30:11;;;;;;;60.17;35.97;;;;;;;0.61;36.60;100126.08;1818536;77;22731;-68
2021/01/20 02:32:59;;;;;;;57.75;32.53;;;;;;;0.54;36.65;100130.83;1772622;79;21633;-70
2021/01/20 02:35:45;;;;;;;59.30;42.17;;;;;;;0.57;36.62;100135.41;1791551;79;28505;-76
2021/01/20 02:38:14;;;;;;;58.52;34.95;;;;;;;0.80;36.48;100148.00;1769002;80;21195;-69
2021/01/20 02:40:43;;;;;;;58.55;34.83;;;;;;;1.06;36.02;100149.80;1784942;79;21208;-69
2021/01/20 02:43:24;;;;;;;59.73;34.63;;;;;;;1.05;36.02;100144.20;1824907;77;22869;-68
2021/01/20 02:45:53;;;;;;;58.63;36.88;;;;;;;0.93;36.05;100151.06;1790695;78;21135;-69
2021/01/20 02:48:21;;;;;;;60.98;36.00;;;;;;;0.92;36.01;100155.08;1789650;79;22120;-70
2021/01/20 02:50:49;;;;;;;57.93;34.98;;;;;;;0.86;36.05;100149.75;1798771;77;21141;-69
2021/01/20 02:53:19;;;;;;;57.15;35.40;;;;;;;0.84;36.05;100147.70;1775638;79;21170;-68
2021/01/20 02:56:00;;;;;;;56.77;34.10;;;;;;;0.77;36.09;100128.09;1829844;76;22648;-70
2021/01/20 02:58:48;;;;;;;52.73;33.10;;;;;;;0.78;36.10;100148.09;1809520;78;21156;-68
2021/01/20 03:01:29;;;;;;;56.63;33.30;;;;;;;0.71;36.18;100144.17;1830962;77;21389;-69
2021/01/20 03:03:58;;;;;;;53.30;32.75;;;;;;;0.67;36.23;100155.76;1785147;78;21155;-69
2021/01/20 03:06:27;;;;;;;56.33;34.50;;;;;;;0.66;36.26;100151.48;1780305;78;21598;-70
2021/01/20 03:08:55;;;;;;;53.98;32.95;;;;;;;0.62;36.31;100152.13;1833429;77;21166;-69
2021/01/20 03:11:22;;;;;;;53.02;31.70;;;;;;;0.64;36.26;100162.03;1823851;77;21139;-69
2021/01/20 03:13:49;;;;;;;52.17;31.87;;;;;;;0.62;36.32;100170.88;1802194;78;21206;-68
2021/01/20 03:16:26;;;;;;;52.30;31.70;;;;;;;0.63;36.29;100168.66;1817581;77;21176;-69
2021/01/20 03:18:55;;;;;;;48.40;29.45;;;;;;;0.62;36.33;100170.88;1853592;77;21164;-69
2021/01/20 03:21:22;;;;;;;52.38;30.00;;;;;;;0.61;36.33;100173.14;1852160;77;21837;-69
2021/01/20 03:23:49;;;;;;;45.70;27.48;;;;;;;0.58;36.37;100174.18;1827091;77;21111;-68
2021/01/20 03:26:16;;;;;;;50.23;29.25;;;;;;;0.55;36.39;100171.26;1843015;75;21361;-68
2021/01/20 03:28:44;;;;;;;42.67;28.92;;;;;;;0.54;36.43;100173.96;1850385;75;21134;-68
2021/01/20 03:31:12;;;;;;;48.78;28.73;;;;;;;0.51;36.47;100172.38;1843540;77;21202;-68
2021/01/20 03:33:39;;;;;;;45.48;29.45;;;;;;;0.55;36.39;100169.95;1856904;75;21135;-68
2021/01/20 03:36:07;;;;;;;47.30;28.83;;;;;;;0.53;36.42;100172.30;1838332;77;21182;-69
2021/01/20 03:38:34;;;;;;;45.55;28.80;;;;;;;0.56;36.39;100172.95;1839371;77;21365;-68
2021/01/20 03:41:01;;;;;;;46.77;29.42;;;;;;;0.55;36.40;100171.73;1783519;78;21194;-70
2021/01/20 03:43:30;;;;;;;50.60;29.48;;;;;;;0.57;36.37;100173.31;1836270;75;21595;-69
2021/01/20 03:45:58;;;;;;;45.85;28.05;;;;;;;0.54;36.41;100164.38;1858935;75;21146;-69
2021/01/20 03:48:25;;;;;;;44.48;28.47;;;;;;;0.57;36.37;100156.80;1818747;77;21084;-69
2021/01/20 03:50:55;;;;;;;36.88;24.80;;;;;;;0.55;36.39;100163.42;1802129;77;21197;-68
2021/01/20 03:53:22;;;;;;;39.38;26.52;;;;;;;0.55;36.36;100162.11;1815858;77;21165;-68
2021/01/20 03:55:49;;;;;;;41.02;26.33;;;;;;;0.55;36.37;100161.28;1824559;77;21122;-68
2021/01/20 03:58:18;;;;;;;41.00;26.95;;;;;;;0.55;36.37;100159.50;1822993;77;21166;-69
2021/01/20 04:00:47;;;;;;;36.95;23.90;;;;;;;0.54;36.40;100156.52;1797050;78;21574;-68
2021/01/20 04:03:14;;;;;;;44.73;25.70;;;;;;;0.51;36.43;100146.24;1849509;77;22280;-68
2021/01/20 04:06:01;;;;;;;40.63;23.92;;;;;;;0.49;36.45;100152.03;1838867;77;21155;-68
2021/01/20 04:08:30;;;;;;;38.50;25.00;;;;;;;0.48;36.45;100146.89;1853511;77;21643;-70
2021/01/20 04:10:59;;;;;;;37.70;24.07;;;;;;;0.52;36.42;100147.08;1842993;77;21173;-68
2021/01/20 04:13:27;;;;;;;40.35;25.25;;;;;;;0.50;36.44;100136.73;1815895;77;21213;-69
2021/01/20 04:15:54;;;;;;;37.95;23.77;;;;;;;0.51;36.42;100130.56;1800965;78;21196;-69
2021/01/20 04:18:22;;;;;;;41.30;23.98;;;;;;;0.53;36.40;100122.63;1826721;77;21208;-69
2021/01/20 04:20:49;;;;;;;41.20;25.23;;;;;;;0.52;36.38;100123.55;1811844;77;21106;-68
2021/01/20 04:23:17;;;;;;;35.05;23.10;;;;;;;0.50;36.42;100122.80;1834483;77;21157;-68
2021/01/20 04:25:44;;;;;;;38.28;22.77;;;;;;;0.47;36.43;100123.84;1832263;77;21307;-68
2021/01/20 04:28:12;;;;;;;38.83;25.27;;;;;;;0.47;36.47;100125.63;1850442;77;21363;-69
2021/01/20 04:30:40;;;;;;;38.42;24.35;;;;;;;0.46;36.46;100127.84;1852916;77;21168;-69
2021/01/20 04:33:08;;;;;;;35.73;23.70;;;;;;;0.49;36.40;100129.81;1846912;75;21076;-68
2021/01/20 04:35:37;;;;;;;37.48;24.25;;;;;;;0.47;36.44;100132.98;1832866;75;21121;-68
2021/01/20 04:38:05;;;;;;;37.75;24.82;;;;;;;0.50;36.38;100131.51;1809822;78;21165;-69
2021/01/20 04:40:32;;;;;;;41.75;24.55;;;;;;;0.49;36.37;100123.28;1826595;77;22632;-69
2021/01/20 04:43:00;;;;;;;40.67;25.95;;;;;;;0.52;36.33;100132.70;1847393;77;21133;-69
2021/01/20 04:45:28;;;;;;;34.23;21.50;;;;;;;0.51;36.35;100136.27;1854545;77;21156;-68
2021/01/20 04:47:55;;;;;;;39.00;24.43;;;;;;;0.49;36.32;100131.12;1804425;78;21187;-70
2021/01/20 04:50:23;;;;;;;37.08;23.20;;;;;;;0.47;36.36;100131.69;1823434;78;21115;-68
2021/01/20 04:52:52;;;;;;;36.80;23.83;;;;;;;0.46;36.37;100127.84;1815307;77;21355;-71
2021/01/20 04:55:20;;;;;;;38.53;24.70;;;;;;;0.44;36.38;100134.47;1793486;78;21157;-69
2021/01/20 04:57:48;;;;;;;37.38;23.80;;;;;;;0.43;36.41;100142.44;1802630;77;21780;-70
2021/01/20 05:00:17;;;;;;;38.25;25.25;;;;;;;0.47;36.33;100142.14;1841625;77;21108;-67
2021/01/20 05:02:44;;;;;;;35.60;23.05;;;;;;;0.45;36.36;100146.63;1811736;76;21648;-71
2021/01/20 05:05:12;;;;;;;39.80;26.37;;;;;;;0.47;36.32;100156.99;1805968;78;21353;-69
2021/01/20 05:07:39;;;;;;;38.42;23.50;;;;;;;0.46;36.33;100156.13;1816311;76;21202;-68
2021/01/20 05:10:08;;;;;;;40.10;25.30;;;;;;;0.45;36.30;100154.47;1812612;76;21164;-68
2021/01/20 05:12:43;;;;;;;42.83;25.43;;;;;;;0.41;36.32;100159.51;1816749;77;21168;-68
2021/01/20 05:15:15;;;;;;;39.60;24.67;;;;;;;0.39;36.37;100152.23;1814255;78;22135;-68
2021/01/20 05:18:06;;;;;;;39.58;24.72;;;;;;;0.42;36.36;100157.73;1827664;77;21556;-69
2021/01/20 05:20:37;;;;;;;41.28;25.95;;;;;;;0.38;36.38;100156.59;1828471;77;21523;-69
2021/01/20 05:23:07;;;;;;;40.78;26.27;;;;;;;0.39;36.33;100158.77;1795739;78;21184;-67
2021/01/20 05:25:40;;;;;;;39.40;25.10;;;;;;;0.39;36.34;100167.91;1813601;77;21226;-68
2021/01/20 05:28:24;;;;;;;48.00;28.00;;;;;;;0.39;36.31;100161.38;1841611;77;21060;-67
2021/01/20 05:30:59;;;;;;;41.55;26.82;;;;;;;0.35;36.32;100166.42;1851389;77;21354;-68
2021/01/20 05:33:36;;;;;;;39.88;25.25;;;;;;;0.34;36.36;100167.34;1851670;77;21969;-69
2021/01/20 05:36:13;;;;;;;42.10;28.10;;;;;;;0.37;36.31;100166.69;1855808;77;21170;-67
2021/01/20 05:38:44;;;;;;;44.67;26.70;;;;;;;0.36;36.32;100172.84;1840834;77;21191;-69
2021/01/20 05:41:20;;;;;;;45.43;28.12;;;;;;;0.37;36.30;100178.45;1846388;77;21166;-69
2021/01/20 05:43:53;;;;;;;42.25;26.68;;;;;;;0.36;36.28;100175.92;1845471;77;21827;-68
2021/01/20 05:46:35;;;;;;;;;;;;;;;0.32;36.33;100181.80;1858456;77;21126;-69
2021/01/20 05:49:05;;;;;;;42.30;26.77;;;;;;;0.33;36.33;100187.89;1833709;77;20544;-67
2021/01/20 05:51:43;;;;;;;45.65;28.05;;;;;;;0.25;36.42;100192.70;1848316;77;21111;-69
2021/01/20 05:54:10;;;;;;;45.90;28.90;;;;;;;0.26;36.38;100191.80;1848787;77;21088;-68
2021/01/20 05:56:38;;;;;;;44.45;27.42;;;;;;;0.28;36.33;100193.37;1827440;77;21170;-67
2021/01/20 05:59:09;;;;;;;46.98;30.17;;;;;;;0.28;36.34;100202.99;1828528;77;21192;-68
2021/01/20 06:02:13;;;;;;;45.33;29.87;;;;;;;0.30;36.33;100195.90;1814436;78;22662;-68
2021/01/20 06:04:42;;;;;;;44.00;29.15;;;;;;;0.26;36.32;100204.38;1752552;80;21080;-67
2021/01/20 06:07:14;;;;;;;46.30;29.42;;;;;;;0.27;36.29;100193.02;1764730;81;21282;-67
2021/01/20 06:09:44;;;;;;;48.38;29.90;;;;;;;0.29;36.25;100192.90;1740617;81;21167;-68
2021/01/20 06:12:12;;;;;;;49.50;30.82;;;;;;;0.28;36.23;100196.45;1749318;81;21177;-68
2021/01/20 06:14:40;;;;;;;52.58;33.05;;;;;;;0.31;36.21;100199.73;1740076;81;21180;-68
2021/01/20 06:17:31;;;;;;;47.73;30.32;;;;;;;0.32;36.21;100188.80;1792056;79;21168;-67
2021/01/20 06:20:01;;;;;;;47.23;30.27;;;;;;;0.32;36.18;100190.11;1798616;79;22479;-67
2021/01/20 06:22:28;;;;;;;48.63;31.25;;;;;;;0.29;36.20;100182.44;1782544;79;21171;-68
2021/01/20 06:24:59;;;;;;;49.60;31.45;;;;;;;0.27;36.24;100179.95;1796425;79;21166;-69
2021/01/20 06:27:43;;;;;;;48.38;30.00;;;;;;;0.33;36.18;100190.03;1777896;79;21162;-68
2021/01/20 06:30:21;;;;;;;50.12;29.50;;;;;;;0.32;36.19;100187.50;1797647;79;21139;-68
2021/01/20 06:32:48;;;;;;;46.92;29.98;;;;;;;0.34;36.16;100193.47;1748417;81;22950;-68
2021/01/20 06:35:16;;;;;;;46.37;29.50;;;;;;;0.34;36.17;100196.92;1780102;79;21159;-69
2021/01/20 06:37:47;;;;;;;46.42;30.08;;;;;;;0.35;36.16;100204.31;1805065;79;21144;-68
2021/01/20 06:40:23;;;;;;;46.80;28.60;;;;;;;0.33;36.17;100195.25;1787135;79;21517;-68
2021/01/20 06:42:52;;;;;;;45.20;29.70;;;;;;;0.33;36.20;100191.81;1812153;78;21111;-68
2021/01/20 06:45:24;;;;;;;46.28;29.60;;;;;;;0.33;36.19;100200.95;1742631;81;22255;-68
2021/01/20 06:48:03;;;;;;;47.80;29.95;;;;;;;0.33;36.22;100199.17;1755749;81;21171;-68
2021/01/20 06:51:08;;;;;;;47.58;29.50;;;;;;;0.39;36.15;100201.89;1747574;80;22151;-68
2021/01/20 06:56:58;;;;;;;44.63;28.07;;;;;;;0.42;36.16;100201.69;1838275;77;22729;-69
2021/01/20 06:59:32;;;;;;;46.50;29.32;;;;;;;0.34;36.19;100210.46;1846716;77;21504;-68
2021/01/20 07:02:10;;;;;;;46.25;27.62;;;;;;;0.37;36.16;100205.90;1818314;78;21139;-68
2021/01/20 07:04:45;;;;;;;45.80;29.48;;;;;;;0.32;36.12;100202.70;1823578;77;21190;-68
2021/01/20 07:07:13;;;;;;;48.55;29.40;;;;;;;0.37;36.17;100211.13;1810477;78;21075;-69
2021/01/20 07:10:00;;;;;;;48.38;30.10;;;;;;;0.38;36.15;100214.09;1792970;78;21596;-68
2021/01/20 07:12:30;;;;;;;48.20;29.57;;;;;;;0.45;36.10;100217.68;1805176;78;21123;-70
2021/01/20 07:14:57;;;;;;;48.75;29.18;;;;;;;0.46;36.10;100167.06;1797235;78;22279;-68
2021/01/20 07:17:25;;;;;;;46.42;29.77;;;;;;;0.50;36.43;100223.45;1772522;78;21123;-68
2021/01/20 07:19:52;;;;;;;49.03;29.30;;;;;;;0.54;37.15;100227.12;1816590;78;21140;-68
2021/01/20 07:22:20;;;;;;;49.25;30.65;;;;;;;0.56;37.21;100233.09;1846517;77;21180;-69
2021/01/20 07:24:47;;;;;;;45.90;28.32;;;;;;;0.55;37.24;100236.63;1836004;77;21532;-69
2021/01/20 07:27:15;;;;;;;48.35;29.82;;;;;;;0.56;37.19;100238.32;1814129;78;21474;-68
2021/01/20 07:29:42;;;;;;;50.50;30.62;;;;;;;0.58;37.09;100233.84;1821970;78;21171;-71
2021/01/20 07:32:09;;;;;;;52.35;31.93;;;;;;;0.59;37.04;100238.12;1821907;77;21149;-68
2021/01/20 07:34:42;;;;;;;48.17;30.32;;;;;;;0.67;36.90;100232.91;1825620;77;21155;-69
2021/01/20 07:37:17;;;;;;;52.03;31.20;;;;;;;0.68;36.83;100233.30;1845029;77;21123;-68
2021/01/20 07:39:45;;;;;;;48.75;31.70;;;;;;;0.72;36.76;100229.55;1826352;77;21369;-67
2021/01/20 07:42:12;;;;;;;50.60;31.05;;;;;;;0.74;36.69;100228.52;1842855;77;21186;-69
2021/01/20 07:44:48;;;;;;;52.55;31.17;;;;;;;0.78;36.63;100223.95;1844290;77;21173;-69
2021/01/20 07:47:15;;;;;;;50.28;30.35;;;;;;;0.82;36.58;100224.60;1828877;77;21147;-69
2021/01/20 07:49:53;;;;;;;53.70;32.05;;;;;;;0.84;36.53;100236.64;1795875;78;21214;-68
2021/01/20 07:52:21;;;;;;;49.70;30.97;;;;;;;0.87;36.47;100237.77;1834600;77;21371;-68
2021/01/20 07:54:49;;;;;;;49.95;31.25;;;;;;;0.90;36.44;100248.51;1831505;77;21154;-69
2021/01/20 07:57:20;;;;;;;49.23;30.77;;;;;;;0.89;36.44;100246.37;1829620;77;21618;-69
2021/01/20 08:00:05;;;;;;;50.67;30.95;;;;;;;0.91;36.42;100252.34;1842024;77;21189;-69
2021/01/20 08:02:49;;;;;;;49.50;30.82;;;;;;;0.93;36.41;100253.56;1827111;77;21084;-69
2021/01/20 08:05:17;;;;;;;48.02;30.10;;;;;;;0.94;36.40;100256.06;1818395;77;23534;-67
2021/01/20 08:07:44;;;;;;;51.83;32.13;;;;;;;1.00;36.32;100252.70;1816268;78;21196;-68
2021/01/20 08:10:20;;;;;;;48.68;29.90;;;;;;;1.04;36.27;100256.34;1837785;77;21147;-68
2021/01/20 08:12:50;;;;;;;56.10;32.00;;;;;;;1.06;36.21;100257.08;1792249;78;21181;-68
2021/01/20 08:15:17;;;;;;;51.30;30.77;;;;;;;1.11;36.17;100258.95;1826290;77;21587;-70
2021/01/20 08:17:45;;;;;;;50.67;30.65;;;;;;;1.14;36.11;100265.77;1828124;77;21592;-69
2021/01/20 08:20:12;;;;;;;51.35;29.63;;;;;;;1.15;36.08;100267.46;1796908;78;21142;-70
2021/01/20 08:22:41;;;;;;;50.95;31.37;;;;;;;1.18;36.02;100264.19;1810597;78;21159;-68
2021/01/20 08:25:09;;;;;;;45.03;28.12;;;;;;;1.19;35.97;100267.64;1797689;78;21133;-69
2021/01/20 08:27:37;;;;;;;44.95;27.98;;;;;;;1.21;36.00;100253.16;1814119;78;21195;-68
2021/01/20 08:30:07;;;;;;;50.73;30.05;;;;;;;1.22;35.90;100250.45;1815346;77;21251;-69
2021/01/20 08:32:34;;;;;;;46.18;27.77;;;;;;;1.27;35.80;100247.53;1783161;78;21261;-67
2021/01/20 08:35:01;;;;;;;50.85;30.52;;;;;;;1.35;35.71;100247.44;1830016;77;21143;-69
2021/01/20 08:37:37;;;;;;;46.00;28.20;;;;;;;1.41;35.72;100254.06;1815639;78;21179;-70
2021/01/20 08:40:07;;;;;;;43.25;27.87;;;;;;;1.50;35.66;100248.70;1803931;78;21102;-67
2021/01/20 08:42:39;;;;;;;43.75;27.70;;;;;;;1.55;35.65;100251.40;1803478;77;21194;-69
2021/01/20 08:45:31;;;;;;;42.80;27.98;;;;;;;1.63;35.62;100240.44;1817172;78;21149;-71
2021/01/20 08:48:07;;;;;;;43.20;27.30;;;;;;;1.72;35.61;100252.08;1838830;77;21152;-69
2021/01/20 08:50:46;;;;;;;41.35;27.70;;;;;;;1.80;35.61;100251.59;1838352;77;21186;-70
2021/01/20 08:53:25;;;;;;;46.58;28.60;;;;;;;1.89;35.63;100244.00;1788965;78;21144;-73
2021/01/20 08:55:54;;;;;;;43.85;27.80;;;;;;;1.98;35.60;100238.61;1809648;78;21343;-69
2021/01/20 08:58:33;;;;;;;48.05;28.02;;;;;;;2.08;35.60;100234.91;1828565;77;21167;-70
2021/01/20 09:01:23;;;;;;;43.05;26.05;;;;;;;2.18;35.66;100237.28;1825615;77;21182;-70
2021/01/20 09:03:59;;;;;;;44.93;27.82;;;;;;;2.29;35.49;100240.03;1804317;78;21209;-69
2021/01/20 09:06:27;;;;;;;43.78;25.97;;;;;;;2.45;35.43;100240.31;1822147;77;21125;-71
2021/01/20 09:08:55;;;;;;;41.73;25.80;;;;;;;2.55;35.39;100240.08;1828809;77;21635;-67
2021/01/20 09:11:22;;;;;;;41.02;25.72;;;;;;;2.71;35.31;100243.79;1826640;77;21668;-68
2021/01/20 09:13:50;;;;;;;44.53;26.07;;;;;;;2.94;35.09;100239.09;1798899;78;21141;-68
2021/01/20 09:16:29;;;;;;;38.90;25.72;;;;;;;2.94;35.09;100215.48;1824841;77;21158;-69
2021/01/20 09:18:57;;;;;;;37.55;25.25;;;;;;;3.08;35.02;100237.30;1804236;78;21122;-68
2021/01/20 09:21:25;;;;;;;40.48;24.98;;;;;;;3.17;35.06;100237.10;1810803;77;21411;-68
2021/01/20 09:23:53;;;;;;;40.08;25.25;;;;;;;3.27;35.06;100238.98;1815705;77;21200;-70
2021/01/20 09:26:20;;;;;;;38.50;24.98;;;;;;;3.39;35.00;100237.75;1830092;77;21154;-68
2021/01/20 09:28:48;;;;;;;36.98;23.73;;;;;;;3.47;34.97;100236.72;1798143;78;21252;-68
2021/01/20 09:31:16;;;;;;;41.10;25.02;;;;;;;3.57;34.91;100239.52;1813083;78;21135;-68
2021/01/20 09:33:44;;;;;;;37.98;25.17;;;;;;;3.68;34.88;100245.67;1789358;79;22325;-68
2021/01/20 09:36:11;;;;;;;35.88;23.75;;;;;;;3.77;34.86;100239.37;1809342;78;21221;-68
2021/01/20 09:38:38;;;;;;;37.08;23.90;;;;;;;3.87;34.82;100250.91;1792996;77;21094;-73
2021/01/20 09:41:06;;;;;;;37.78;24.57;;;;;;;3.97;34.78;100243.19;1811323;78;21080;-70
2021/01/20 09:43:33;;;;;;;38.88;24.07;;;;;;;4.06;34.71;100243.34;1829235;77;21551;-69
2021/01/20 09:46:00;;;;;;;36.40;24.05;;;;;;;4.17;34.70;100236.43;1822426;78;21194;-74
2021/01/20 09:48:28;;;;;;;38.25;24.07;;;;;;;4.27;34.63;100230.86;1821611;78;21153;-69
2021/01/20 09:50:55;;;;;;;37.67;24.05;;;;;;;4.41;34.58;100239.02;1810490;78;21705;-72
2021/01/20 09:53:22;;;;;;;36.03;23.77;;;;;;;4.53;34.50;100229.70;1834272;77;21579;-70
2021/01/20 09:55:50;;;;;;;38.88;25.68;;;;;;;4.64;34.44;100222.80;1836742;77;21171;-75
2021/01/20 09:58:17;;;;;;;34.92;24.40;;;;;;;4.75;34.39;100221.46;1842977;77;21360;-70
2021/01/20 10:00:44;;;;;;;37.40;25.52;;;;;;;4.87;34.35;100212.63;1837670;77;21226;-72
2021/01/20 10:03:12;;;;;;;35.25;24.00;;;;;;;4.98;34.28;100214.89;1799195;77;21244;-70
2021/01/20 10:05:41;;;;;;;37.53;24.60;;;;;;;5.10;34.22;100216.58;1795582;77;21173;-71
2021/01/20 10:08:08;;;;;;;33.98;22.62;;;;;;;5.21;34.15;100212.59;1798551;78;21144;-71
2021/01/20 10:10:36;;;;;;;32.55;22.52;;;;;;;5.31;34.09;100210.91;1825603;77;21810;-69
2021/01/20 10:13:03;;;;;;;31.82;21.97;;;;;;;5.43;34.04;100218.80;1831134;76;21072;-71
2021/01/20 10:15:31;;;;;;;33.55;23.60;;;;;;;5.55;34.00;100207.26;1828024;77;21154;-72
2021/01/20 10:17:59;;;;;;;32.45;22.58;;;;;;;5.67;33.99;100214.65;1817599;77;21194;-71
2021/01/20 10:20:27;;;;;;;34.90;23.12;;;;;;;5.79;33.91;100208.84;1806519;78;21648;-70
2021/01/20 10:22:54;;;;;;;34.27;23.65;;;;;;;5.89;33.90;100211.08;1817040;78;21729;-70
2021/01/20 10:25:29;;;;;;;31.93;22.37;;;;;;;5.99;33.93;100205.91;1794315;78;21215;-69
2021/01/20 10:27:51;;;;;;;31.97;21.93;;;;;;;6.08;33.98;100206.47;1795574;79;21166;-69
2021/01/20 10:30:19;;;;;;;30.23;22.13;;;;;;;6.17;33.92;100205.70;1808359;78;21174;-69
2021/01/20 10:32:46;;;;;;;33.18;23.07;;;;;;;6.26;33.89;100205.44;1810599;78;21150;-68
2021/01/20 10:35:19;;;;;;;30.57;21.65;;;;;;;6.35;33.82;100207.27;1792693;78;21531;-68
2021/01/20 10:37:43;;;;;;;30.57;21.30;;;;;;;6.43;33.80;100212.77;1796945;78;21866;-71
2021/01/20 10:40:12;;;;;;;31.80;21.95;;;;;;;6.52;33.77;100207.66;1791316;78;21710;-71
2021/01/20 10:42:40;;;;;;;35.43;23.25;;;;;;;6.60;33.71;100203.88;1798274;78;21116;-71
2021/01/20 10:45:09;;;;;;;30.65;21.37;;;;;;;6.68;33.65;100208.02;1813719;78;21186;-69
2021/01/20 10:47:36;;;;;;;30.92;21.12;;;;;;;6.76;33.59;100200.75;1789509;78;21353;-73
2021/01/20 10:50:05;;;;;;;33.75;21.20;;;;;;;6.81;33.58;100200.71;1827242;78;21191;-71
2021/01/20 10:52:32;;;;;;;29.25;19.77;;;;;;;6.88;33.55;100191.30;1829910;77;21532;-71
2021/01/20 10:55:00;;;;;;;29.40;20.45;;;;;;;6.97;33.55;100202.02;1814091;78;21631;-70
2021/01/20 10:57:27;;;;;;;29.92;19.87;;;;;;;7.04;33.53;100205.31;1818180;77;21213;-69
2021/01/20 10:59:56;;;;;;;29.15;20.48;;;;;;;7.13;33.50;100208.12;1822374;77;21839;-70
2021/01/20 11:02:23;;;;;;;28.90;19.98;;;;;;;7.21;33.41;100189.80;1836570;77;21983;-72
2021/01/20 11:04:51;;;;;;;30.65;21.00;;;;;;;7.28;33.43;100185.63;1816675;78;21150;-72
2021/01/20 11:07:18;;;;;;;26.97;18.73;;;;;;;7.36;33.38;100194.20;1816792;77;21209;-72
2021/01/20 11:09:47;;;;;;;26.75;18.85;;;;;;;7.43;33.32;100188.72;1790998;78;21206;-69
2021/01/20 11:12:15;;;;;;;28.12;18.77;;;;;;;7.49;33.27;100184.20;1817766;78;21241;-68
2021/01/20 11:14:44;;;;;;;28.20;18.77;;;;;;;7.56;33.23;100187.98;1800499;78;21197;-72
2021/01/20 11:17:11;;;;;;;30.08;19.42;;;;;;;7.63;33.15;100193.08;1803861;78;21191;-69
2021/01/20 11:19:39;;;;;;;29.25;19.50;;;;;;;7.72;33.13;100187.42;1824176;77;21173;-69
2021/01/20 11:22:09;;;;;;;26.50;18.48;;;;;;;7.84;33.05;100185.02;1836808;77;21121;-69
2021/01/20 11:24:36;;;;;;;27.58;19.07;;;;;;;8.02;32.94;100190.42;1821201;78;21824;-70
2021/01/20 11:27:05;;;;;;;26.82;18.02;;;;;;;8.21;32.80;100184.27;1821037;78;21213;-68
2021/01/20 11:29:32;;;;;;;24.72;17.77;;;;;;;8.43;32.62;100184.95;1816301;78;21629;-70
2021/01/20 11:31:59;;;;;;;23.60;17.15;;;;;;;8.64;32.44;100185.58;1827298;77;21590;-70
2021/01/20 11:34:28;;;;;;;25.17;17.77;;;;;;;8.87;32.25;100185.72;1811099;78;22102;-70
2021/01/20 11:36:56;;;;;;;25.30;18.30;;;;;;;9.11;32.02;100179.87;1827663;77;22145;-69